Time;durP1;ratioP1;P1;durP2;ratioP2;P2;SDS_P1;SDS_P2;PMS_P1;PMS_P2;Temp;Humidity;BMP_temperature;BMP_pressure;BME280_temperature;BME280_humidity;BME280_pressure;Samples;Min_cycle;Max_cycle;Signal;HPM_P1;HPM_P2
2022/12/19 00:01:27;;;;;;;41.63;21.45;;;0.70;99.90;;;;;;5073113;28;20050;-59
2022/12/19 00:03:57;;;;;;;39.30;21.13;;;0.70;99.90;;;;;;5073252;28;20033;-58
2022/12/19 00:06:23;;;;;;;38.85;21.98;;;0.80;99.90;;;;;;5074003;28;20028;-60
2022/12/19 00:08:51;;;;;;;37.88;21.30;;;0.80;99.90;;;;;;5071186;28;20091;-58
2022/12/19 00:11:18;;;;;;;38.38;21.52;;;0.90;99.90;;;;;;5055095;28;20046;-59
2022/12/19 00:13:44;;;;;;;40.03;21.23;;;0.80;99.90;;;;;;5073103;28;20044;-61
2022/12/19 00:16:13;;;;;;;41.17;22.13;;;0.90;99.90;;;;;;5073403;28;20067;-60
2022/12/19 00:18:40;;;;;;;39.00;22.40;;;0.90;99.90;;;;;;5073098;28;20131;-60
2022/12/19 00:21:07;;;;;;;37.33;20.58;;;0.90;99.90;;;;;;5072388;28;20119;-55
2022/12/19 00:23:34;;;;;;;38.85;21.08;;;0.90;99.90;;;;;;5066056;28;20044;-61
2022/12/19 00:26:27;;;;;;;37.97;20.77;;;0.90;99.90;;;;;;5074889;28;20079;-60
2022/12/19 00:28:55;;;;;;;41.38;22.23;;;1.00;99.90;;;;;;5065736;28;20092;-61
2022/12/19 00:31:22;;;;;;;42.92;22.38;;;1.10;99.90;;;;;;5063652;28;20090;-60
2022/12/19 00:33:48;;;;;;;44.45;22.88;;;1.00;99.90;;;;;;5090551;28;20036;-57
2022/12/19 00:36:28;;;;;;;42.05;21.63;;;1.00;99.90;;;;;;5055375;28;20040;-59
2022/12/19 00:38:56;;;;;;;42.80;23.45;;;1.10;99.90;;;;;;5072297;28;20047;-59
2022/12/19 00:41:40;;;;;;;45.05;22.20;;;1.10;99.90;;;;;;5073136;28;20033;-61
2022/12/19 00:44:09;;;;;;;39.45;19.95;;;1.10;99.90;;;;;;5060219;28;20032;-61
2022/12/19 00:46:35;;;;;;;39.50;21.10;;;1.10;99.90;;;;;;5085457;28;20051;-63
2022/12/19 00:49:02;;;;;;;40.10;21.65;;;1.10;99.90;;;;;;5074035;28;20044;-62
2022/12/19 00:51:30;;;;;;;40.10;20.90;;;1.10;99.90;;;;;;5085734;28;20097;-60
2022/12/19 00:53:56;;;;;;;40.20;22.27;;;1.20;99.90;;;;;;5092805;28;20465;-63
2022/12/19 00:56:24;;;;;;;39.03;21.00;;;1.20;99.90;;;;;;5090905;28;20036;-61
2022/12/19 00:58:51;;;;;;;38.03;20.58;;;1.20;99.90;;;;;;5079433;28;20048;-64
2022/12/19 01:01:24;;;;;;;38.88;20.20;;;1.10;99.90;;;;;;5090965;28;20040;-60
2022/12/19 01:03:50;;;;;;;42.97;23.40;;;1.20;99.90;;;;;;5091912;28;20036;-60
2022/12/19 01:06:16;;;;;;;40.95;21.95;;;1.20;99.90;;;;;;5076717;28;20044;-62
2022/12/19 01:08:41;;;;;;;40.80;20.13;;;1.20;99.90;;;;;;5072365;28;20120;-61
2022/12/19 01:11:07;;;;;;;39.50;21.38;;;1.30;99.90;;;;;;5086106;28;20051;-61
2022/12/19 01:13:35;;;;;;;40.63;21.80;;;1.20;99.90;;;;;;5091607;28;20032;-59
2022/12/19 01:16:02;;;;;;;36.92;20.20;;;1.30;99.90;;;;;;5088965;28;20090;-60
2022/12/19 01:18:28;;;;;;;41.53;21.75;;;1.20;99.90;;;;;;5072393;28;20133;-61
2022/12/19 01:20:54;;;;;;;40.53;21.38;;;1.20;99.90;;;;;;5078031;28;20083;-59
2022/12/19 01:23:20;;;;;;;39.78;19.90;;;1.30;99.90;;;;;;5096726;28;20032;-59
2022/12/19 01:25:51;;;;;;;36.95;20.35;;;1.30;99.90;;;;;;5095560;28;20039;-60
2022/12/19 01:28:17;;;;;;;41.60;21.70;;;1.30;99.90;;;;;;5084116;28;20135;-62
2022/12/19 01:30:42;;;;;;;42.22;21.50;;;1.30;99.90;;;;;;5058135;28;20132;-62
2022/12/19 01:33:11;;;;;;;42.67;21.83;;;1.30;99.90;;;;;;5058547;28;20097;-62
2022/12/19 01:35:37;;;;;;;41.30;20.80;;;1.30;99.90;;;;;;5088975;28;20132;-62
2022/12/19 01:38:03;;;;;;;40.63;20.80;;;1.40;99.90;;;;;;5075561;28;20380;-61
2022/12/19 01:40:28;;;;;;;38.10;21.15;;;1.40;99.90;;;;;;5073630;28;20044;-60
2022/12/19 01:42:54;;;;;;;41.38;21.75;;;1.40;99.90;;;;;;5095353;28;20039;-61
2022/12/19 01:45:30;;;;;;;42.08;23.48;;;1.30;99.90;;;;;;5081348;28;20035;-59
2022/12/19 01:48:11;;;;;;;43.65;22.30;;;1.30;99.90;;;;;;5086170;28;20384;-62
2022/12/19 01:50:53;;;;;;;39.20;21.48;;;1.30;99.90;;;;;;5088262;28;20036;-59
2022/12/19 01:53:21;;;;;;;39.70;21.13;;;1.30;99.90;;;;;;5075874;28;20113;-61
2022/12/19 01:55:47;;;;;;;41.47;21.50;;;1.20;99.90;;;;;;5085106;28;20059;-60
2022/12/19 01:58:13;;;;;;;39.92;21.40;;;1.30;99.90;;;;;;5085639;28;20032;-61
2022/12/19 02:00:42;;;;;;;37.65;20.20;;;1.30;99.90;;;;;;5093988;28;20036;-59
2022/12/19 02:03:17;;;;;;;40.70;21.17;;;1.30;99.90;;;;;;5080689;28;20044;-60
2022/12/19 02:05:43;;;;;;;47.95;24.17;;;1.30;99.90;;;;;;5094524;28;20105;-61
2022/12/19 02:08:10;;;;;;;43.83;22.60;;;1.20;99.90;;;;;;5076477;28;20504;-60
2022/12/19 02:10:35;;;;;;;45.67;22.90;;;1.30;99.90;;;;;;5075180;28;20040;-60
2022/12/19 02:13:01;;;;;;;48.17;23.85;;;1.30;99.90;;;;;;5087539;28;20403;-58
2022/12/19 02:15:32;;;;;;;44.22;23.88;;;1.20;99.90;;;;;;5075553;28;20044;-58
2022/12/19 02:18:13;;;;;;;45.80;24.15;;;1.20;99.90;;;;;;5084291;28;20045;-62
2022/12/19 02:21:13;;;;;;;42.95;22.27;;;1.30;99.90;;;;;;5087687;28;20478;-61
2022/12/19 02:23:54;;;;;;;48.28;23.95;;;1.30;99.90;;;;;;5087024;28;20124;-62
2022/12/19 02:26:32;;;;;;;43.58;22.27;;;1.20;99.90;;;;;;5059607;28;20072;-61
2022/12/19 02:29:22;;;;;;;44.22;23.02;;;1.30;99.90;;;;;;5056211;28;20152;-60
2022/12/19 02:31:59;;;;;;;46.45;23.23;;;1.40;99.90;;;;;;5061413;28;20063;-61
2022/12/19 02:34:40;;;;;;;46.95;24.00;;;1.40;99.90;;;;;;5042369;28;20369;-61
2022/12/19 02:37:29;;;;;;;52.42;24.90;;;1.50;99.90;;;;;;5055936;28;20059;-61
2022/12/19 02:40:08;;;;;;;48.75;23.50;;;1.50;99.90;;;;;;5049364;28;20483;-61
2022/12/19 02:42:45;;;;;;;43.42;22.98;;;1.50;99.90;;;;;;5050139;28;20520;-59
2022/12/19 02:45:14;;;;;;;46.58;23.98;;;1.50;99.90;;;;;;5073773;28;20056;-60
2022/12/19 02:47:41;;;;;;;44.67;24.42;;;1.50;99.90;;;;;;5067640;28;20373;-60
2022/12/19 02:50:07;;;;;;;45.80;23.77;;;1.60;99.90;;;;;;5037032;28;20029;-61
2022/12/19 02:52:33;;;;;;;46.67;24.90;;;1.50;99.90;;;;;;5054756;28;20051;-60
2022/12/19 02:55:11;;;;;;;47.65;25.42;;;1.50;99.90;;;;;;5070769;28;20330;-59
2022/12/19 02:57:46;;;;;;;54.92;27.48;;;1.50;99.90;;;;;;5050249;28;20033;-61
2022/12/19 03:00:17;;;;;;;44.50;23.88;;;1.60;99.90;;;;;;5072623;28;20024;-59
2022/12/19 03:03:02;;;;;;;48.35;26.00;;;1.60;99.90;;;;;;5060059;28;20055;-60
2022/12/19 03:05:53;;;;;;;49.30;25.88;;;1.60;99.90;;;;;;5063819;28;20048;-59
2022/12/19 03:08:51;;;;;;;49.00;24.48;;;1.60;99.90;;;;;;5059841;28;20399;-57
2022/12/19 03:11:17;;;;;;;47.97;26.77;;;1.70;99.90;;;;;;5059652;28;20036;-58
2022/12/19 03:13:57;;;;;;;53.17;27.50;;;1.60;99.90;;;;;;5073146;28;20098;-61
2022/12/19 03:16:23;;;;;;;51.60;26.83;;;1.80;99.90;;;;;;5071947;28;20044;-60
2022/12/19 03:18:50;;;;;;;53.80;28.45;;;1.70;99.90;;;;;;5057974;28;20485;-57
2022/12/19 03:21:43;;;;;;;51.22;26.48;;;1.70;99.90;;;;;;5059116;28;20028;-59
2022/12/19 03:24:11;;;;;;;55.97;28.48;;;1.80;99.90;;;;;;5067226;28;20122;-61
2022/12/19 03:26:53;;;;;;;56.40;27.40;;;1.80;99.90;;;;;;5068013;28;20048;-62
2022/12/19 03:29:29;;;;;;;54.30;28.75;;;1.90;99.90;;;;;;5073862;28;20464;-61
2022/12/19 03:31:58;;;;;;;48.70;24.90;;;1.90;99.90;;;;;;5073563;28;20105;-59
2022/12/19 03:34:28;;;;;;;54.72;28.42;;;1.90;99.90;;;;;;5093367;28;20032;-61
2022/12/19 03:36:58;;;;;;;50.70;26.52;;;1.90;99.90;;;;;;5079347;28;20048;-60
2022/12/19 03:39:25;;;;;;;58.33;28.45;;;2.00;99.90;;;;;;5080367;28;20324;-59
2022/12/19 03:44:41;;;;;;;57.42;29.63;;;2.10;99.90;;;;;;5074990;28;20044;-62
2022/12/19 03:47:23;;;;;;;54.58;29.15;;;2.10;99.90;;;;;;5057134;28;20029;-62
2022/12/19 03:49:49;;;;;;;55.70;28.70;;;2.10;99.90;;;;;;5079813;28;20073;-61
2022/12/19 03:52:33;;;;;;;52.28;27.13;;;2.20;99.90;;;;;;5067805;28;20051;-60
2022/12/19 03:55:02;;;;;;;52.37;25.67;;;2.10;99.90;;;;;;5057694;28;20047;-59
2022/12/19 03:57:35;;;;;;;51.42;26.65;;;2.20;99.90;;;;;;5082510;28;20119;-61
2022/12/19 04:00:08;;;;;;;53.78;27.73;;;2.20;99.90;;;;;;5088295;28;20028;-60
2022/12/19 04:02:36;;;;;;;49.85;25.83;;;2.30;99.90;;;;;;5091611;28;20078;-60
2022/12/19 04:05:07;;;;;;;49.13;27.52;;;2.30;99.90;;;;;;5085156;28;20029;-59
2022/12/19 04:07:35;;;;;;;53.30;28.35;;;2.40;99.90;;;;;;5072375;28;20483;-60
2022/12/19 04:10:08;;;;;;;48.50;25.33;;;2.40;99.90;;;;;;5084892;28;20045;-59
2022/12/19 04:12:39;;;;;;;52.47;27.65;;;2.40;99.90;;;;;;5073100;28;20045;-60
2022/12/19 04:15:06;;;;;;;52.95;26.30;;;2.40;99.90;;;;;;5069070;28;20039;-60
2022/12/19 04:17:45;;;;;;;43.03;23.58;;;2.40;99.90;;;;;;5076916;28;20388;-61
2022/12/19 04:20:16;;;;;;;48.80;27.23;;;2.50;99.90;;;;;;5072885;28;20048;-61
2022/12/19 04:22:58;;;;;;;47.03;25.48;;;2.50;99.90;;;;;;5072825;28;20405;-59
2022/12/19 04:25:33;;;;;;;53.25;26.08;;;2.50;99.90;;;;;;5073071;28;20368;-59
2022/12/19 04:28:17;;;;;;;48.72;25.60;;;2.50;99.90;;;;;;5060152;28;20057;-59
2022/12/19 04:30:44;;;;;;;44.75;23.83;;;2.50;99.90;;;;;;5085635;28;20083;-58
2022/12/19 04:33:10;;;;;;;45.33;25.55;;;2.50;99.90;;;;;;5064598;28;20055;-59
2022/12/19 04:35:36;;;;;;;58.92;26.70;;;2.60;99.90;;;;;;5076010;28;20044;-59
2022/12/19 04:38:02;;;;;;;48.30;26.80;;;2.50;99.90;;;;;;5072403;28;20036;-59
2022/12/19 04:40:28;;;;;;;42.40;24.55;;;2.50;99.90;;;;;;5087420;28;20472;-59
2022/12/19 04:42:55;;;;;;;49.08;26.02;;;2.60;99.90;;;;;;5082434;28;20044;-60
2022/12/19 04:45:20;;;;;;;52.30;28.40;;;2.60;99.90;;;;;;5038498;28;20040;-59
2022/12/19 04:47:46;;;;;;;52.75;29.90;;;2.70;99.90;;;;;;5076279;28;20036;-59
2022/12/19 04:50:12;;;;;;;49.03;25.90;;;2.60;99.90;;;;;;5083987;28;20048;-58
2022/12/19 04:52:37;;;;;;;49.22;27.38;;;2.60;99.90;;;;;;5082206;28;20032;-59
2022/12/19 04:55:03;;;;;;;58.85;28.60;;;2.70;99.90;;;;;;5077094;28;20062;-59
2022/12/19 04:57:30;;;;;;;48.80;26.52;;;2.60;99.90;;;;;;5081408;28;20102;-59
2022/12/19 04:59:56;;;;;;;54.67;26.90;;;2.60;99.90;;;;;;5057326;28;20113;-63
2022/12/19 05:02:21;;;;;;;50.42;25.98;;;2.70;99.90;;;;;;5081832;28;20400;-59
2022/12/19 05:04:47;;;;;;;48.33;27.45;;;2.70;99.90;;;;;;5075397;28;20036;-58
2022/12/19 05:07:13;;;;;;;52.47;26.83;;;2.60;99.90;;;;;;5090212;28;20044;-59
2022/12/19 05:09:39;;;;;;;45.45;25.92;;;2.70;99.90;;;;;;5075143;28;20330;-59
2022/12/19 05:12:05;;;;;;;42.28;23.42;;;2.70;99.90;;;;;;5091432;28;20104;-58
2022/12/19 05:14:31;;;;;;;45.08;24.27;;;2.70;99.90;;;;;;5077562;28;20040;-57
2022/12/19 05:16:56;;;;;;;48.20;26.25;;;2.70;99.90;;;;;;5091724;28;20047;-61
2022/12/19 05:19:22;;;;;;;44.67;25.25;;;2.70;99.90;;;;;;5026414;28;20069;-59
2022/12/19 05:21:48;;;;;;;45.25;26.60;;;2.90;99.90;;;;;;5072546;28;20082;-59
2022/12/19 05:24:13;;;;;;;50.17;27.55;;;2.90;99.90;;;;;;5075252;28;20093;-59
2022/12/19 05:26:39;;;;;;;45.15;24.05;;;2.90;99.90;;;;;;5091965;28;20052;-59
2022/12/19 05:29:04;;;;;;;44.83;23.95;;;3.00;99.90;;;;;;5075377;28;20040;-56
2022/12/19 05:31:30;;;;;;;47.15;24.45;;;2.90;99.90;;;;;;5072212;28;20457;-63
2022/12/19 05:33:56;;;;;;;39.97;22.95;;;2.90;99.90;;;;;;5071938;28;20052;-63
2022/12/19 05:36:21;;;;;;;41.65;23.95;;;2.90;99.90;;;;;;5075885;28;20040;-58
2022/12/19 05:38:47;;;;;;;44.05;22.35;;;2.90;99.90;;;;;;5086488;28;20075;-59
2022/12/19 05:41:14;;;;;;;40.35;22.45;;;3.00;99.90;;;;;;5090594;28;20036;-58
2022/12/19 05:43:41;;;;;;;37.00;21.73;;;3.00;99.90;;;;;;5087996;28;20184;-59
2022/12/19 05:46:07;;;;;;;39.65;21.23;;;3.00;99.90;;;;;;5089594;28;20103;-56
2022/12/19 05:48:33;;;;;;;36.97;22.38;;;3.00;99.90;;;;;;5087103;28;20097;-58
2022/12/19 05:50:59;;;;;;;41.05;22.88;;;3.10;99.90;;;;;;5082890;28;20051;-58
2022/12/19 05:53:26;;;;;;;43.88;22.77;;;3.20;99.90;;;;;;5072417;28;20040;-59
2022/12/19 05:56:05;;;;;;;37.47;21.30;;;3.10;99.90;;;;;;5081640;28;20414;-60
2022/12/19 05:58:32;;;;;;;41.17;22.20;;;3.10;99.90;;;;;;5083934;28;20040;-61
2022/12/19 06:01:12;;;;;;;38.88;21.67;;;3.20;99.90;;;;;;5088918;28;20099;-61
2022/12/19 06:03:38;;;;;;;36.75;20.05;;;3.20;99.90;;;;;;5088069;28;20048;-60
2022/12/19 06:06:06;;;;;;;41.63;23.05;;;3.30;99.90;;;;;;5091520;28;20040;-59
2022/12/19 06:08:32;;;;;;;39.88;22.50;;;3.30;99.90;;;;;;5076888;28;20407;-60
2022/12/19 06:10:59;;;;;;;34.95;19.33;;;3.30;99.90;;;;;;5084047;28;20040;-61
2022/12/19 06:13:26;;;;;;;35.17;19.23;;;3.30;99.90;;;;;;5083116;28;20479;-60
2022/12/19 06:16:03;;;;;;;33.80;18.65;;;3.40;99.90;;;;;;5092583;28;20028;-59
2022/12/19 06:18:29;;;;;;;38.70;20.95;;;3.50;99.90;;;;;;5074347;28;20064;-59
2022/12/19 06:21:01;;;;;;;34.95;20.13;;;3.40;99.90;;;;;;5090658;28;20039;-59
2022/12/19 06:23:30;;;;;;;35.42;20.38;;;3.50;99.90;;;;;;5086580;28;20043;-59
2022/12/19 06:25:58;;;;;;;32.00;18.65;;;3.50;99.90;;;;;;5082060;28;20089;-62
2022/12/19 06:28:25;;;;;;;35.08;19.70;;;3.50;99.90;;;;;;5079083;28;20374;-56
2022/12/19 06:30:50;;;;;;;33.38;20.67;;;3.50;99.90;;;;;;5081489;28;20055;-58
2022/12/19 06:33:16;;;;;;;38.78;21.10;;;3.60;99.90;;;;;;5058755;28;20182;-59
2022/12/19 06:35:42;;;;;;;30.73;18.23;;;3.70;99.90;;;;;;5077613;28;20036;-58
2022/12/19 06:38:07;;;;;;;34.40;19.30;;;3.70;99.90;;;;;;5078780;28;20084;-59
2022/12/19 06:43:17;;;;;;;34.22;19.15;;;3.70;99.90;;;;;;5074779;28;20036;-61
2022/12/19 06:45:42;;;;;;;33.63;19.15;;;3.80;99.90;;;;;;5074880;28;20143;-60
2022/12/19 06:48:08;;;;;;;32.72;18.40;;;3.90;99.90;;;;;;5083075;28;20080;-60
2022/12/19 06:50:34;;;;;;;32.42;18.50;;;3.90;99.90;;;;;;5086467;28;20049;-60
2022/12/19 06:53:00;;;;;;;36.83;19.75;;;4.00;99.90;;;;;;5089562;28;20044;-60
2022/12/19 06:55:26;;;;;;;31.27;18.38;;;4.00;99.90;;;;;;5074145;28;20044;-60
2022/12/19 06:57:51;;;;;;;34.33;19.50;;;4.00;99.90;;;;;;5081847;28;20078;-59
2022/12/19 07:00:17;;;;;;;32.17;19.45;;;4.00;99.90;;;;;;5078868;28;20086;-59
2022/12/19 07:02:47;;;;;;;34.45;19.15;;;4.10;99.90;;;;;;5078463;28;20037;-60
2022/12/19 07:05:13;;;;;;;30.25;19.42;;;4.10;99.90;;;;;;5079014;28;20448;-60
2022/12/19 07:07:40;;;;;;;35.90;19.88;;;4.10;99.90;;;;;;5058010;28;20039;-62
2022/12/19 07:10:06;;;;;;;29.98;17.85;;;4.20;99.90;;;;;;5074811;28;20116;-60
2022/12/19 07:12:32;;;;;;;37.80;19.77;;;4.20;99.90;;;;;;5081657;28;20383;-62
2022/12/19 07:14:57;;;;;;;30.08;17.83;;;4.10;99.90;;;;;;5077979;28;20033;-60
2022/12/19 07:17:24;;;;;;;31.92;18.15;;;4.20;99.90;;;;;;5079754;28;20418;-61
2022/12/19 07:19:53;;;;;;;31.63;19.25;;;4.20;99.90;;;;;;5080943;28;20460;-62
2022/12/19 07:22:19;;;;;;;32.45;19.48;;;4.20;99.90;;;;;;5091751;28;20401;-63
2022/12/19 07:24:44;;;;;;;32.17;18.98;;;4.20;99.90;;;;;;5091439;28;20615;-59
2022/12/19 07:27:10;;;;;;;31.38;18.33;;;4.20;99.90;;;;;;5072462;28;20055;-59
2022/12/19 07:29:36;;;;;;;27.42;17.90;;;4.30;99.90;;;;;;5086366;28;20039;-57
2022/12/19 07:32:02;;;;;;;31.60;18.17;;;4.30;99.90;;;;;;5088908;28;20044;-59
2022/12/19 07:34:28;;;;;;;29.80;18.10;;;4.40;99.90;;;;;;5073359;28;20383;-60
2022/12/19 07:36:54;;;;;;;30.60;18.10;;;4.40;99.90;;;;;;5089496;28;20036;-60
2022/12/19 07:39:20;;;;;;;28.70;17.35;;;4.40;99.90;;;;;;5088856;28;20055;-64
2022/12/19 07:41:46;;;;;;;26.10;16.42;;;4.40;99.90;;;;;;5072443;28;20047;-59
2022/12/19 07:44:12;;;;;;;27.42;15.55;;;4.50;99.90;;;;;;5076644;28;20044;-59
2022/12/19 07:46:38;;;;;;;24.48;15.90;;;4.50;99.90;;;;;;5066575;28;20070;-60
2022/12/19 07:49:04;;;;;;;25.80;17.38;;;4.50;99.90;;;;;;5069307;28;20063;-61
2022/12/19 07:51:29;;;;;;;24.60;16.15;;;4.50;99.90;;;;;;5081284;28;20032;-59
2022/12/19 07:53:55;;;;;;;24.65;15.57;;;4.70;99.90;;;;;;5082393;28;20051;-61
2022/12/19 07:56:20;;;;;;;25.42;16.10;;;4.70;99.90;;;;;;5087704;28;20044;-61
2022/12/19 07:58:46;;;;;;;26.55;16.75;;;4.70;99.90;;;;;;5075784;28;20032;-62
2022/12/19 08:01:12;;;;;;;24.40;16.00;;;4.60;99.90;;;;;;5086746;28;20428;-61
2022/12/19 08:03:37;;;;;;;25.65;16.05;;;4.60;99.90;;;;;;5072521;28;20040;-60
2022/12/19 08:06:05;;;;;;;25.83;16.52;;;4.70;99.90;;;;;;5061322;28;20039;-59
2022/12/19 08:08:32;;;;;;;25.42;16.35;;;4.70;99.90;;;;;;5078704;28;20052;-62
2022/12/19 08:11:07;;;;;;;28.77;17.10;;;4.70;99.90;;;;;;5079747;28;20059;-61
2022/12/19 08:13:33;;;;;;;22.90;15.50;;;4.80;99.90;;;;;;5076511;28;20040;-63
2022/12/19 08:16:00;;;;;;;26.63;16.30;;;4.70;99.90;;;;;;5073010;28;20060;-61
2022/12/19 08:18:26;;;;;;;26.33;16.30;;;4.80;99.90;;;;;;5058450;28;20041;-62
2022/12/19 08:20:52;;;;;;;29.02;17.90;;;4.90;99.90;;;;;;5075515;28;20051;-63
2022/12/19 08:23:21;;;;;;;25.65;17.23;;;4.80;99.90;;;;;;5067400;28;20075;-60
2022/12/19 08:25:46;;;;;;;27.92;17.23;;;4.80;99.90;;;;;;5065455;28;20051;-61
2022/12/19 08:28:12;;;;;;;25.63;16.98;;;4.80;99.90;;;;;;5073172;28;20044;-61
2022/12/19 08:30:39;;;;;;;25.88;17.05;;;5.00;99.90;;;;;;5077275;28;20062;-61
2022/12/19 08:33:04;;;;;;;25.08;16.58;;;5.10;99.90;;;;;;5054195;28;20044;-60
2022/12/19 08:35:30;;;;;;;26.65;16.55;;;5.00;99.90;;;;;;5055138;28;20043;-61
2022/12/19 08:37:56;;;;;;;25.83;16.83;;;5.00;99.90;;;;;;5073865;28;20098;-58
2022/12/19 08:40:22;;;;;;;26.95;17.15;;;5.10;99.90;;;;;;5036510;28;20475;-60
2022/12/19 08:42:49;;;;;;;24.77;16.23;;;5.20;99.90;;;;;;5082923;28;20464;-60
2022/12/19 08:45:16;;;;;;;27.10;17.13;;;5.20;99.90;;;;;;5054812;28;20055;-59
2022/12/19 08:47:42;;;;;;;24.15;17.20;;;5.20;99.90;;;;;;5072404;28;20040;-60
2022/12/19 08:50:08;;;;;;;27.17;17.65;;;5.30;99.90;;;;;;5074153;28;20046;-63
2022/12/19 08:52:34;;;;;;;25.70;16.48;;;5.30;99.90;;;;;;5070887;28;20098;-63
2022/12/19 08:55:00;;;;;;;28.40;17.65;;;5.30;99.90;;;;;;5068967;28;20036;-61
2022/12/19 08:57:25;;;;;;;26.58;17.45;;;5.50;99.90;;;;;;5055135;28;20071;-63
2022/12/19 08:59:51;;;;;;;25.15;16.17;;;5.50;99.90;;;;;;5073500;28;20744;-62
2022/12/19 09:02:16;;;;;;;25.63;17.63;;;5.40;99.90;;;;;;5072128;28;20095;-62
2022/12/19 09:04:42;;;;;;;24.15;16.70;;;5.60;99.90;;;;;;5073802;28;20062;-60
2022/12/19 09:07:07;;;;;;;24.67;17.40;;;5.60;99.90;;;;;;5073991;28;20032;-60
2022/12/19 09:09:33;;;;;;;25.13;16.48;;;5.70;99.90;;;;;;5074843;28;20052;-64
2022/12/19 09:11:58;;;;;;;26.45;17.15;;;5.70;99.90;;;;;;5061606;28;20048;-63
2022/12/19 09:14:24;;;;;;;24.02;16.27;;;5.70;99.90;;;;;;5057235;28;20051;-61
2022/12/19 09:16:50;;;;;;;22.65;15.25;;;5.90;99.90;;;;;;5091416;28;20035;-63
2022/12/19 09:19:15;;;;;;;22.02;15.70;;;5.90;99.90;;;;;;5088558;28;20479;-61
2022/12/19 09:21:41;;;;;;;23.90;17.15;;;5.90;99.90;;;;;;5079845;28;20055;-60
2022/12/19 09:24:08;;;;;;;23.00;16.27;;;6.00;99.90;;;;;;5076802;28;20033;-60
2022/12/19 09:26:34;;;;;;;23.58;15.68;;;6.00;99.90;;;;;;5071996;28;20368;-61
2022/12/19 09:29:00;;;;;;;24.63;16.08;;;6.00;99.90;;;;;;5053935;28;20052;-60
2022/12/19 09:31:27;;;;;;;24.52;14.98;;;6.10;99.90;;;;;;5071700;28;20033;-62
2022/12/19 09:33:52;;;;;;;22.50;16.08;;;6.20;99.90;;;;;;5054080;28;20041;-61
2022/12/19 09:36:23;;;;;;;22.70;15.82;;;6.40;99.90;;;;;;5081096;28;20047;-61
2022/12/19 09:38:53;;;;;;;22.77;14.88;;;6.30;99.90;;;;;;5063832;28;20116;-60
2022/12/19 09:41:19;;;;;;;25.42;16.33;;;6.20;99.90;;;;;;5049866;28;20045;-60
2022/12/19 09:44:15;;;;;;;24.05;15.60;;;6.30;99.90;;;;;;5079166;28;20159;-60
2022/12/19 09:46:53;;;;;;;22.45;15.80;;;6.30;99.90;;;;;;5080271;28;20101;-59
2022/12/19 09:49:30;;;;;;;21.73;15.05;;;6.50;99.90;;;;;;5088852;28;20119;-60
2022/12/19 09:52:06;;;;;;;21.10;14.27;;;6.40;99.90;;;;;;5090871;28;20040;-63
2022/12/19 09:54:40;;;;;;;19.80;14.40;;;6.40;99.90;;;;;;5075868;28;20044;-60
2022/12/19 09:57:22;;;;;;;22.75;15.52;;;6.50;99.90;;;;;;5081483;28;20444;-61
2022/12/19 09:59:54;;;;;;;24.10;14.98;;;6.50;99.90;;;;;;5078193;28;20032;-60
2022/12/19 10:02:23;;;;;;;21.42;14.80;;;6.60;99.90;;;;;;5076640;28;20040;-62
2022/12/19 10:04:53;;;;;;;23.17;15.27;;;6.60;99.90;;;;;;5077261;28;20044;-59
2022/12/19 10:07:20;;;;;;;21.08;14.88;;;6.60;99.90;;;;;;5077080;28;20396;-60
2022/12/19 10:09:46;;;;;;;21.55;14.65;;;6.70;99.90;;;;;;5076706;28;20045;-63
2022/12/19 10:12:30;;;;;;;22.45;17.88;;;6.70;99.90;;;;;;5077062;28;20040;-62
2022/12/19 10:15:28;;;;;;;21.05;14.57;;;6.70;99.90;;;;;;5075116;28;20044;-63
2022/12/19 10:18:31;;;;;;;21.75;14.80;;;6.70;99.90;;;;;;5004698;28;20091;-62
2022/12/19 10:21:03;;;;;;;19.02;13.45;;;6.80;99.90;;;;;;5074813;28;20453;-63
2022/12/19 10:23:51;;;;;;;18.10;13.70;;;6.90;99.90;;;;;;5068267;28;20036;-62
2022/12/19 10:26:19;;;;;;;18.30;13.23;;;7.00;99.90;;;;;;5074864;28;20072;-62
2022/12/19 10:28:54;;;;;;;19.27;13.30;;;6.90;99.90;;;;;;5074964;28;20408;-61
2022/12/19 10:31:40;;;;;;;22.83;14.52;;;7.00;99.90;;;;;;5074746;28;20110;-60
2022/12/19 10:34:14;;;;;;;16.50;11.52;;;7.10;99.90;;;;;;5057318;28;20041;-60
2022/12/19 10:36:43;;;;;;;16.55;11.57;;;7.10;99.90;;;;;;5065062;28;20047;-61
2022/12/19 10:39:31;;;;;;;17.70;11.75;;;7.20;99.90;;;;;;5070874;28;20039;-60
2022/12/19 10:42:08;;;;;;;16.50;10.80;;;7.20;99.90;;;;;;5079354;28;20050;-61
2022/12/19 10:44:37;;;;;;;15.10;11.27;;;7.20;99.90;;;;;;5078200;28;20049;-61
2022/12/19 10:47:02;;;;;;;14.27;10.95;;;7.30;99.90;;;;;;5075023;28;20040;-62
2022/12/19 10:49:28;;;;;;;15.88;11.20;;;7.40;99.90;;;;;;5074044;28;20048;-61
2022/12/19 10:52:06;;;;;;;15.30;10.43;;;7.30;99.90;;;;;;5042432;28;20123;-60
2022/12/19 10:54:35;;;;;;;16.05;10.43;;;7.40;99.90;;;;;;5090861;28;20040;-61
2022/12/19 10:57:28;;;;;;;12.95;9.85;;;7.40;99.90;;;;;;5072952;28;20039;-62
2022/12/19 10:59:59;;;;;;;16.02;10.80;;;7.50;99.90;;;;;;5075190;28;20094;-61
2022/12/19 11:02:36;;;;;;;12.35;9.85;;;7.60;99.90;;;;;;5092684;28;20036;-62
2022/12/19 11:05:04;;;;;;;15.23;10.52;;;7.60;99.90;;;;;;5077131;28;20071;-63
2022/12/19 11:07:30;;;;;;;16.00;10.18;;;7.60;99.90;;;;;;5089801;28;20451;-62
2022/12/19 11:09:56;;;;;;;14.63;10.55;;;7.70;99.90;;;;;;5073182;28;20068;-62
2022/12/19 11:12:24;;;;;;;14.07;9.45;;;7.50;99.90;;;;;;5081176;28;20059;-61
2022/12/19 11:15:02;;;;;;;12.55;9.75;;;7.60;99.90;;;;;;5091191;28;20361;-64
2022/12/19 11:17:33;;;;;;;13.13;10.20;;;7.70;99.90;;;;;;5090386;28;20036;-61
2022/12/19 11:20:18;;;;;;;15.50;10.40;;;7.60;99.90;;;;;;5090000;28;20345;-61
2022/12/19 11:22:53;;;;;;;16.40;11.48;;;7.60;99.90;;;;;;5089458;28;20044;-62
2022/12/19 11:25:22;;;;;;;13.40;9.20;;;7.60;99.90;;;;;;5076236;28;20352;-61
2022/12/19 11:27:48;;;;;;;13.85;9.50;;;7.80;99.90;;;;;;5068136;28;20044;-60
2022/12/19 11:30:14;;;;;;;12.38;10.52;;;7.80;99.90;;;;;;5072989;28;20047;-62
2022/12/19 11:32:46;;;;;;;13.93;9.00;;;7.70;99.90;;;;;;5074506;28;20044;-60
2022/12/19 11:35:25;;;;;;;12.38;10.48;;;7.70;99.90;;;;;;5074668;28;20032;-62
2022/12/19 11:38:04;;;;;;;13.27;8.82;;;7.80;99.90;;;;;;5085469;28;20097;-62
2022/12/19 11:40:35;;;;;;;13.07;9.52;;;7.90;99.90;;;;;;5087907;28;20119;-63
2022/12/19 11:43:23;;;;;;;12.45;9.10;;;7.90;99.90;;;;;;5092592;28;20447;-61
2022/12/19 11:46:15;;;;;;;13.07;8.60;;;8.00;99.90;;;;;;5087092;28;20050;-60
2022/12/19 11:48:54;;;;;;;12.30;9.25;;;7.90;99.90;;;;;;5087333;28;20076;-62
2022/12/19 11:51:42;;;;;;;13.00;8.82;;;8.00;99.90;;;;;;5090591;28;20383;-63
2022/12/19 11:54:20;;;;;;;;;;;7.90;99.90;;;;;;5081448;28;20031;-61
2022/12/19 11:56:46;;;;;;;12.52;8.68;;;8.10;99.90;;;;;;5058198;28;20272;-62
2022/12/19 11:59:20;;;;;;;12.60;8.80;;;8.00;99.90;;;;;;5072803;28;20058;-62
2022/12/19 12:02:23;;;;;;;10.88;8.48;;;8.10;99.90;;;;;;5057713;28;20040;-61
2022/12/19 12:05:19;;;;;;;12.27;9.05;;;8.00;99.90;;;;;;5060587;28;20087;-58
2022/12/19 12:07:52;;;;;;;11.57;8.65;;;8.00;99.90;;;;;;5076502;28;20423;-59
2022/12/19 12:10:20;;;;;;;11.73;8.02;;;8.00;99.90;;;;;;5055375;28;20044;-61
2022/12/19 12:13:12;;;;;;;10.95;9.38;;;8.10;99.90;;;;;;5076319;28;20047;-62
2022/12/19 12:16:09;;;;;;;13.00;9.02;;;8.20;99.90;;;;;;5071710;28;20113;-62
2022/12/19 12:19:12;;;;;;;11.00;8.02;;;8.30;99.90;;;;;;5056897;28;20032;-60
2022/12/19 12:21:51;;;;;;;11.05;7.95;;;8.30;99.90;;;;;;5043395;28;20052;-61
2022/12/19 12:24:38;;;;;;;9.93;8.13;;;8.30;99.90;;;;;;5078997;28;20120;-61
2022/12/19 12:27:25;;;;;;;9.43;7.32;;;8.40;99.90;;;;;;5092587;28;20080;-61
2022/12/19 12:29:57;;;;;;;10.02;8.00;;;8.40;99.90;;;;;;5078284;28;20068;-62
2022/12/19 12:32:41;;;;;;;9.23;7.78;;;8.40;99.90;;;;;;5083254;28;20044;-61
2022/12/19 12:35:35;;;;;;;11.10;8.27;;;8.50;99.90;;;;;;5062179;28;20079;-61
2022/12/19 12:38:38;;;;;;;10.68;7.57;;;8.50;99.90;;;;;;5059603;28;20049;-60
2022/12/19 12:41:09;;;;;;;12.15;7.95;;;8.50;99.90;;;;;;5057252;28;20076;-61
2022/12/19 12:43:59;;;;;;;11.75;8.68;;;8.50;99.90;;;;;;5062639;28;20032;-61
2022/12/19 12:46:31;;;;;;;13.10;8.63;;;8.40;99.90;;;;;;5067642;28;20064;-64
2022/12/19 12:49:03;;;;;;;13.80;8.90;;;8.50;99.90;;;;;;5056498;28;20044;-63
2022/12/19 12:51:32;;;;;;;11.73;7.78;;;8.50;99.90;;;;;;5064564;28;20036;-62
2022/12/19 12:54:09;;;;;;;11.02;8.80;;;8.50;99.90;;;;;;5065922;28;20044;-62
2022/12/19 12:56:36;;;;;;;12.32;8.07;;;8.50;99.90;;;;;;5061796;28;20039;-61
2022/12/19 12:59:06;;;;;;;10.45;8.45;;;8.50;99.90;;;;;;5061130;28;20086;-61
2022/12/19 13:01:39;;;;;;;9.38;7.68;;;8.50;99.90;;;;;;5075772;28;20448;-61
2022/12/19 13:04:20;;;;;;;11.27;7.80;;;8.60;99.90;;;;;;5072775;28;20090;-62